createdAt,value
2018-09-12T00:00:24.498Z,20.21
2018-09-12T00:02:55.503Z,20.23
2018-09-12T00:05:26.478Z,20.25
2018-09-12T00:07:57.577Z,20.13
2018-09-12T00:10:28.483Z,20.12
2018-09-12T00:12:59.506Z,20.16
2018-09-12T00:15:30.468Z,20.16
2018-09-12T00:18:01.465Z,20.11
2018-09-12T00:20:32.472Z,19.97
2018-09-12T00:23:03.508Z,19.94
2018-09-12T00:25:34.479Z,19.96
2018-09-12T00:28:05.478Z,19.79
2018-09-12T00:30:36.495Z,19.72
2018-09-12T00:33:07.545Z,19.54
2018-09-12T00:35:38.484Z,19.57
2018-09-12T00:38:09.501Z,19.50
2018-09-12T00:40:40.498Z,19.42
2018-09-12T00:43:11.512Z,19.56
2018-09-12T00:45:42.472Z,19.52
2018-09-12T00:48:13.624Z,19.50
2018-09-12T00:50:44.486Z,19.49
2018-09-12T00:53:15.499Z,19.51
2018-09-12T00:55:46.526Z,19.55
2018-09-12T00:58:17.489Z,19.49
2018-09-12T01:00:48.540Z,19.57
2018-09-12T01:03:19.499Z,19.53
2018-09-12T01:05:50.513Z,19.47
2018-09-12T01:08:21.522Z,19.10
2018-09-12T01:10:52.511Z,18.89
2018-09-12T01:13:23.515Z,18.78
2018-09-12T01:15:54.538Z,18.68
2018-09-12T01:18:25.508Z,18.76
2018-09-12T01:20:56.500Z,18.72
2018-09-12T01:23:27.501Z,18.83
2018-09-12T01:25:58.505Z,18.75
2018-09-12T01:28:29.505Z,18.76
2018-09-12T01:31:01.497Z,18.69
2018-09-12T01:33:32.518Z,18.55
2018-09-12T01:36:03.517Z,18.43
2018-09-12T01:38:34.516Z,18.44
2018-09-12T01:41:05.521Z,18.46
2018-09-12T01:43:36.550Z,18.49
2018-09-12T01:46:07.774Z,18.31
2018-09-12T01:48:38.590Z,18.21
2018-09-12T01:51:09.512Z,18.17
2018-09-12T01:53:40.518Z,18.13
2018-09-12T01:56:11.489Z,17.82
2018-09-12T01:58:42.501Z,17.67
2018-09-12T02:01:13.534Z,17.61
2018-09-12T02:03:44.504Z,17.73
2018-09-12T02:06:15.485Z,17.62
2018-09-12T02:08:46.533Z,17.85
2018-09-12T02:11:17.507Z,17.94
2018-09-12T02:13:48.530Z,17.99
2018-09-12T02:16:19.509Z,17.95
2018-09-12T02:18:50.510Z,17.91
2018-09-12T02:21:21.523Z,17.96
2018-09-12T02:23:52.509Z,17.90
2018-09-12T02:26:23.649Z,17.87
2018-09-12T02:28:54.615Z,17.98
2018-09-12T02:31:26.609Z,17.85
2018-09-12T02:33:57.516Z,17.94
2018-09-12T02:36:29.725Z,17.90
2018-09-12T02:39:01.397Z,17.98
2018-09-12T02:41:32.509Z,17.54
2018-09-12T02:44:03.525Z,17.45
2018-09-12T02:46:34.523Z,17.02
2018-09-12T02:49:05.556Z,16.78
2018-09-12T02:51:36.586Z,16.86
2018-09-12T02:54:07.508Z,16.96
2018-09-12T02:56:38.493Z,16.96
2018-09-12T02:59:09.526Z,16.89
2018-09-12T03:01:40.589Z,16.85
2018-09-12T03:04:11.502Z,16.88
2018-09-12T03:06:42.488Z,16.81
2018-09-12T03:09:13.508Z,16.69
2018-09-12T03:11:44.508Z,16.77
2018-09-12T03:14:16.023Z,16.74
2018-09-12T03:16:47.373Z,16.70
2018-09-12T03:19:18.767Z,16.71
2018-09-12T03:21:49.745Z,16.70
2018-09-12T03:24:20.650Z,16.56
2018-09-12T03:26:51.562Z,16.55
2018-09-12T03:29:22.550Z,16.37
2018-09-12T03:31:53.521Z,16.38
2018-09-12T03:34:24.544Z,16.20
2018-09-12T03:36:55.530Z,16.16
2018-09-12T03:39:26.525Z,16.32
2018-09-12T03:41:57.544Z,16.24
2018-09-12T03:44:28.518Z,16.04
2018-09-12T03:46:59.474Z,15.83
2018-09-12T03:49:30.528Z,15.84
2018-09-12T03:52:01.514Z,15.96
2018-09-12T03:54:32.538Z,15.83
2018-09-12T03:59:39.625Z,15.89
2018-09-12T04:02:10.500Z,15.84
2018-09-12T04:04:41.531Z,15.77
2018-09-12T04:07:12.604Z,15.70
2018-09-12T04:09:43.564Z,15.49
2018-09-12T04:12:14.494Z,15.59
2018-09-12T04:14:46.722Z,15.70
2018-09-12T04:17:17.557Z,15.63
2018-09-12T04:19:48.513Z,15.56
2018-09-12T04:22:19.465Z,15.65
2018-09-12T04:24:50.629Z,15.66
2018-09-12T04:27:21.499Z,15.59
2018-09-12T04:29:52.529Z,15.61
2018-09-12T04:32:23.588Z,15.53
2018-09-12T04:34:54.541Z,15.58
2018-09-12T04:37:25.498Z,15.52
2018-09-12T04:39:56.501Z,15.49
2018-09-12T04:42:27.485Z,15.41
2018-09-12T04:44:58.497Z,15.43
2018-09-12T04:47:29.485Z,15.44
2018-09-12T04:50:00.502Z,15.39
2018-09-12T04:52:31.537Z,15.55
2018-09-12T04:55:02.503Z,15.55
2018-09-12T04:58:21.531Z,15.54
2018-09-12T05:00:52.513Z,15.44
2018-09-12T05:03:23.500Z,15.54
2018-09-12T05:05:54.494Z,15.58
2018-09-12T05:08:25.506Z,15.50
2018-09-12T05:10:56.497Z,15.49
2018-09-12T05:13:28.473Z,15.56
2018-09-12T05:15:59.609Z,15.60
2018-09-12T05:18:31.760Z,15.60
2018-09-12T05:21:02.626Z,15.52
2018-09-12T05:23:33.542Z,15.74
2018-09-12T05:26:04.486Z,15.61
2018-09-12T05:28:35.567Z,15.71
2018-09-12T05:31:06.649Z,15.60
2018-09-12T05:33:37.647Z,15.86
2018-09-12T05:36:09.712Z,15.72
2018-09-12T05:38:40.609Z,15.54
2018-09-12T05:41:11.494Z,15.54
2018-09-12T05:43:42.498Z,15.86
2018-09-12T05:46:13.493Z,15.72
2018-09-12T05:48:45.229Z,15.72
2018-09-12T05:51:16.406Z,15.63
2018-09-12T05:53:47.563Z,15.68
2018-09-12T05:56:18.537Z,15.68
2018-09-12T05:58:49.775Z,15.67
2018-09-12T06:01:20.629Z,15.83
2018-09-12T06:03:51.531Z,15.83
2018-09-12T06:06:22.527Z,15.97
2018-09-12T06:08:53.487Z,16.11
2018-09-12T06:11:24.509Z,16.20
2018-09-12T06:13:55.500Z,16.09
2018-09-12T06:16:26.522Z,16.29
2018-09-12T06:18:57.742Z,16.20
2018-09-12T06:24:08.731Z,16.25
2018-09-12T06:26:39.565Z,16.36
2018-09-12T06:29:10.489Z,16.49
2018-09-12T06:31:41.617Z,16.54
2018-09-12T06:34:12.506Z,16.80
2018-09-12T06:36:43.525Z,16.79
2018-09-12T06:39:14.726Z,17.01
2018-09-12T06:41:45.579Z,17.21
2018-09-12T06:44:16.502Z,17.07
2018-09-12T06:46:48.200Z,17.33
2018-09-12T06:49:19.364Z,17.48
2018-09-12T06:51:50.435Z,17.52
2018-09-12T06:54:21.489Z,17.66
2018-09-12T06:59:38.525Z,18.26
2018-09-12T07:02:09.489Z,18.48
2018-09-12T07:04:40.469Z,18.67
2018-09-12T07:07:11.527Z,18.89
2018-09-12T07:09:42.535Z,19.13
2018-09-12T07:12:13.527Z,19.28
2018-09-12T07:14:44.525Z,19.43
2018-09-12T07:17:15.565Z,19.47
2018-09-12T07:19:46.509Z,19.64
2018-09-12T07:22:17.513Z,19.66
2018-09-12T07:24:48.560Z,19.87
2018-09-12T07:27:19.516Z,19.85
2018-09-12T07:29:50.498Z,19.89
2018-09-12T07:32:21.513Z,20.14
2018-09-12T07:34:52.518Z,20.34
2018-09-12T07:37:23.506Z,20.21
2018-09-12T07:39:54.541Z,20.46
2018-09-12T07:42:26.290Z,20.61
2018-09-12T07:44:57.401Z,20.66
2018-09-12T07:47:28.640Z,20.57
2018-09-12T07:49:59.769Z,20.80
2018-09-12T07:52:30.614Z,21.04
2018-09-12T07:55:01.928Z,21.12
2018-09-12T07:57:33.014Z,21.14
2018-09-12T08:00:04.362Z,21.41
2018-09-12T08:02:35.361Z,21.61
2018-09-12T08:05:06.442Z,21.48
2018-09-12T08:07:37.511Z,21.81
2018-09-12T08:10:08.506Z,21.72
2018-09-12T08:12:39.498Z,21.97
2018-09-12T08:15:10.562Z,22.15
2018-09-12T08:17:41.666Z,22.30
2018-09-12T08:20:12.554Z,22.45
2018-09-12T08:22:43.493Z,22.75
2018-09-12T08:25:14.520Z,23.08
2018-09-12T08:27:45.746Z,22.67
2018-09-12T08:30:16.605Z,23.22
2018-09-12T08:32:47.499Z,23.84
2018-09-12T08:35:19.390Z,23.87
2018-09-12T08:37:50.508Z,24.29
2018-09-12T08:40:21.508Z,24.70
2018-09-12T08:42:52.507Z,25.52
2018-09-12T08:45:23.451Z,25.64
2018-09-12T08:47:54.706Z,26.00
2018-09-12T08:50:25.911Z,26.29
2018-09-12T08:52:57.443Z,26.75
2018-09-12T08:55:28.589Z,26.93
2018-09-12T08:57:59.609Z,26.78
2018-09-12T09:00:34.606Z,28.08
2018-09-12T09:03:07.285Z,28.07
2018-09-12T09:05:38.515Z,28.62
2018-09-12T09:08:09.490Z,28.86
2018-09-12T09:10:40.581Z,28.71
2018-09-12T09:13:11.509Z,28.98
2018-09-12T09:15:42.494Z,28.77
2018-09-12T09:18:13.490Z,28.82
2018-09-12T09:20:44.576Z,28.26
2018-09-12T09:23:15.498Z,28.46
2018-09-12T09:25:46.478Z,28.62
2018-09-12T09:28:17.543Z,27.96
2018-09-12T09:30:48.493Z,28.40
2018-09-12T09:33:19.484Z,27.91
2018-09-12T09:35:50.564Z,28.23
2018-09-12T09:38:21.486Z,27.68
2018-09-12T09:40:52.594Z,27.73
2018-09-12T09:43:23.534Z,27.73
2018-09-12T09:45:54.517Z,27.93
2018-09-12T09:48:25.575Z,27.73
2018-09-12T09:50:56.538Z,27.35
2018-09-12T09:53:27.572Z,27.51
2018-09-12T09:55:58.505Z,27.67
2018-09-12T09:58:29.555Z,27.22
2018-09-12T10:01:05.745Z,27.51
2018-09-12T10:03:46.385Z,27.44
2018-09-12T10:06:25.266Z,27.50
2018-09-12T10:08:56.301Z,27.42
2018-09-12T10:11:27.369Z,27.67
2018-09-12T10:13:58.398Z,27.57
2018-09-12T10:16:29.522Z,27.35
2018-09-12T10:19:00.605Z,27.58
2018-09-12T10:21:32.029Z,27.90
2018-09-12T10:24:03.382Z,27.78
2018-09-12T10:26:34.511Z,27.85
2018-09-12T10:29:05.518Z,28.04
2018-09-12T10:31:36.489Z,27.85
2018-09-12T10:34:07.603Z,27.96
2018-09-12T10:36:38.487Z,28.21
2018-09-12T10:39:13.228Z,28.08
2018-09-12T10:41:44.610Z,27.93
2018-09-12T10:44:15.716Z,28.29
2018-09-12T10:46:46.610Z,28.41
2018-09-12T10:49:17.537Z,28.49
2018-09-12T10:51:48.504Z,28.66
2018-09-12T10:54:19.545Z,28.98
2018-09-12T10:56:50.565Z,29.44
2018-09-12T10:59:21.533Z,29.56
2018-09-12T11:01:52.538Z,29.21
2018-09-12T11:04:23.626Z,29.39
2018-09-12T11:06:54.505Z,29.85
2018-09-12T11:09:25.499Z,30.74
2018-09-12T11:11:56.506Z,30.98
2018-09-12T11:14:27.517Z,31.47
2018-09-12T11:16:58.510Z,31.45
2018-09-12T11:19:29.515Z,32.09
2018-09-12T11:22:00.486Z,31.85
2018-09-12T11:24:31.519Z,31.41
2018-09-12T11:27:02.494Z,32.22
2018-09-12T11:29:33.461Z,32.22
2018-09-12T11:32:04.505Z,33.04
2018-09-12T11:34:35.611Z,32.56
2018-09-12T11:37:06.510Z,33.29
2018-09-12T11:39:37.546Z,32.34
2018-09-12T11:42:08.606Z,32.04
2018-09-12T11:44:39.510Z,32.34
2018-09-12T11:47:10.505Z,33.54
2018-09-12T11:49:44.330Z,33.97
2018-09-12T11:52:15.378Z,33.53
2018-09-12T11:54:46.498Z,32.92
2018-09-12T11:57:17.513Z,33.15
2018-09-12T11:59:48.473Z,33.77
2018-09-12T12:02:19.739Z,34.07
2018-09-12T12:04:50.564Z,34.00
2018-09-12T12:07:21.569Z,35.02
2018-09-12T12:09:52.522Z,33.71
2018-09-12T12:12:23.490Z,35.14
2018-09-12T12:14:54.521Z,34.06
2018-09-12T12:17:25.490Z,34.69
2018-09-12T12:19:56.492Z,35.09
2018-09-12T12:22:27.509Z,35.52
2018-09-12T12:24:58.549Z,35.25
2018-09-12T12:27:29.477Z,35.09
2018-09-12T12:30:00.515Z,35.27
2018-09-12T12:32:31.500Z,34.75
2018-09-12T12:35:02.550Z,35.93
2018-09-12T12:37:33.521Z,35.37
2018-09-12T12:40:04.555Z,34.90
2018-09-12T12:42:35.501Z,34.70
2018-09-12T12:45:06.550Z,35.38
2018-09-12T12:47:37.514Z,34.39
2018-09-12T12:50:08.785Z,34.45
2018-09-12T12:52:39.558Z,34.78
2018-09-12T12:55:10.511Z,34.70
2018-09-12T12:57:41.468Z,35.20
2018-09-12T13:00:12.506Z,35.24
2018-09-12T13:02:43.507Z,34.83
2018-09-12T13:05:14.526Z,35.32
2018-09-12T13:07:45.514Z,35.77
2018-09-12T13:10:16.520Z,35.19
2018-09-12T13:12:47.501Z,35.31
2018-09-12T13:15:18.539Z,35.27
2018-09-12T13:17:49.507Z,35.07
2018-09-12T13:20:20.505Z,34.94
2018-09-12T13:22:51.482Z,35.99
2018-09-12T13:25:22.514Z,35.94
2018-09-12T13:27:53.531Z,35.72
2018-09-12T13:30:24.517Z,35.12
2018-09-12T13:32:55.502Z,34.62
2018-09-12T13:35:26.529Z,35.94
2018-09-12T13:37:57.501Z,35.97
2018-09-12T13:40:28.514Z,35.79
2018-09-12T13:42:59.503Z,35.41
2018-09-12T13:45:30.586Z,35.57
2018-09-12T13:48:01.520Z,34.82
2018-09-12T13:50:32.522Z,35.38
2018-09-12T13:53:03.530Z,35.33
2018-09-12T13:55:34.542Z,36.23
2018-09-12T13:58:05.497Z,35.30
2018-09-12T14:00:36.497Z,35.37
2018-09-12T14:03:07.632Z,35.90
2018-09-12T14:05:38.493Z,35.82
2018-09-12T14:08:09.487Z,35.63
2018-09-12T14:10:41.934Z,35.72
2018-09-12T14:13:12.778Z,35.83
2018-09-12T14:15:43.594Z,35.78
2018-09-12T14:18:14.501Z,35.03
2018-09-12T14:20:45.498Z,34.95
2018-09-12T14:23:16.509Z,35.39
2018-09-12T14:25:47.555Z,34.59
2018-09-12T14:28:18.529Z,34.50
2018-09-12T14:30:49.538Z,35.06
2018-09-12T14:33:20.496Z,34.52
2018-09-12T14:35:51.538Z,33.78
2018-09-12T14:38:22.493Z,34.17
2018-09-12T14:40:53.582Z,34.46
2018-09-12T14:43:24.533Z,33.71
2018-09-12T14:45:55.549Z,34.21
2018-09-12T14:48:26.546Z,33.44
2018-09-12T14:50:57.522Z,33.40
2018-09-12T14:53:28.539Z,33.39
2018-09-12T14:55:59.541Z,33.26
2018-09-12T14:58:30.529Z,33.18
2018-09-12T15:01:01.550Z,32.81
2018-09-12T15:03:33.025Z,32.68
2018-09-12T15:06:04.308Z,32.49
2018-09-12T15:08:35.438Z,32.74
2018-09-12T15:11:06.574Z,32.39
2018-09-12T15:13:37.489Z,32.13
2018-09-12T15:16:08.574Z,32.12
2018-09-12T15:18:39.525Z,32.04
2018-09-12T15:21:10.529Z,31.72
2018-09-12T15:23:42.292Z,31.62
2018-09-12T15:26:13.399Z,31.55
2018-09-12T15:28:44.534Z,31.62
2018-09-12T15:31:15.535Z,31.40
2018-09-12T15:33:46.597Z,31.49
2018-09-12T15:36:17.525Z,31.23
2018-09-12T15:38:48.493Z,31.23
2018-09-12T15:41:19.556Z,31.32
2018-09-12T15:43:50.695Z,31.14
2018-09-12T15:46:21.582Z,31.21
2018-09-12T15:48:52.622Z,31.09
2018-09-12T15:51:23.562Z,31.06
2018-09-12T15:53:54.497Z,31.05
2018-09-12T15:56:25.531Z,30.94
2018-09-12T15:58:56.564Z,30.83
2018-09-12T16:01:27.529Z,30.82
2018-09-12T16:03:58.687Z,30.67
2018-09-12T16:06:29.642Z,30.38
2018-09-12T16:09:00.489Z,30.43
2018-09-12T16:11:31.537Z,30.31
2018-09-12T16:14:02.585Z,30.38
2018-09-12T16:16:33.587Z,30.26
2018-09-12T16:19:04.535Z,30.27
2018-09-12T16:21:36.369Z,30.04
2018-09-12T16:24:07.535Z,29.92
2018-09-12T16:26:38.553Z,30.05
2018-09-12T16:29:09.541Z,29.97
2018-09-12T16:31:40.538Z,29.80
2018-09-12T16:34:11.513Z,29.81
2018-09-12T16:36:42.529Z,29.80
2018-09-12T16:39:14.376Z,29.66
2018-09-12T16:41:45.510Z,29.56
2018-09-12T16:44:16.508Z,29.60
2018-09-12T16:46:47.522Z,29.59
2018-09-12T16:49:18.502Z,29.48
2018-09-12T16:51:49.580Z,29.43
2018-09-12T16:54:20.504Z,29.49
2018-09-12T16:56:51.608Z,29.38
2018-09-12T16:59:22.480Z,29.34
2018-09-12T17:01:54.742Z,29.19
2018-09-12T17:04:25.714Z,29.11
2018-09-12T17:06:57.352Z,29.12
2018-09-12T17:09:28.394Z,28.94
2018-09-12T17:11:59.711Z,28.98
2018-09-12T17:14:30.642Z,28.92
2018-09-12T17:17:01.566Z,28.87
2018-09-12T17:19:34.129Z,28.74
2018-09-12T17:22:05.375Z,28.73
2018-09-12T17:24:36.464Z,28.58
2018-09-12T17:27:07.507Z,28.54
2018-09-12T17:29:38.501Z,28.50
2018-09-12T17:32:09.513Z,28.42
2018-09-12T17:34:40.517Z,28.32
2018-09-12T17:37:11.550Z,28.21
2018-09-12T17:39:42.517Z,28.21
2018-09-12T17:42:13.778Z,28.09
2018-09-12T17:44:44.594Z,28.01
2018-09-12T17:47:15.582Z,27.93
2018-09-12T17:49:46.515Z,27.82
2018-09-12T17:52:18.286Z,27.76
2018-09-12T17:54:49.446Z,27.49
2018-09-12T17:57:20.538Z,27.63
2018-09-12T17:59:51.534Z,27.59
2018-09-12T18:02:22.489Z,27.50
2018-09-12T18:04:53.555Z,27.43
2018-09-12T18:07:24.469Z,27.30
2018-09-12T18:09:55.507Z,27.25
2018-09-12T18:12:26.527Z,27.09
2018-09-12T18:14:57.567Z,26.98
2018-09-12T18:17:28.556Z,26.70
2018-09-12T18:19:59.492Z,26.78
2018-09-12T18:22:30.509Z,26.71
2018-09-12T18:25:01.489Z,26.68
2018-09-12T18:27:32.577Z,26.50
2018-09-12T18:30:03.551Z,26.43
2018-09-12T18:32:34.515Z,26.47
2018-09-12T18:35:05.538Z,26.39
2018-09-12T18:37:36.514Z,26.40
2018-09-12T18:40:07.490Z,26.33
2018-09-12T18:42:38.482Z,26.16
2018-09-12T18:45:09.518Z,25.98
2018-09-12T18:47:40.477Z,25.95
2018-09-12T18:50:11.473Z,25.98
2018-09-12T18:52:42.433Z,25.89
2018-09-12T18:55:13.541Z,25.80
2018-09-12T18:57:44.639Z,25.72
2018-09-12T19:00:15.615Z,25.64
2018-09-12T19:02:46.755Z,25.60
2018-09-12T19:05:17.629Z,25.52
2018-09-12T19:07:48.538Z,25.45
2018-09-12T19:10:19.492Z,25.40
2018-09-12T19:12:50.835Z,25.37
2018-09-12T19:15:22.188Z,25.29
2018-09-12T19:17:53.389Z,25.12
2018-09-12T19:20:24.498Z,25.12
2018-09-12T19:22:55.537Z,25.12
2018-09-12T19:25:26.530Z,24.99
2018-09-12T19:27:57.510Z,24.99
2018-09-12T19:30:28.595Z,24.85
2018-09-12T19:32:59.646Z,24.72
2018-09-12T19:35:30.570Z,24.72
2018-09-12T19:38:01.534Z,24.65
2018-09-12T19:40:32.521Z,24.55
2018-09-12T19:43:03.514Z,24.48
2018-09-12T19:45:34.638Z,24.43
2018-09-12T19:48:05.599Z,24.42
2018-09-12T19:50:36.526Z,24.42
2018-09-12T19:53:07.594Z,24.21
2018-09-12T19:55:38.570Z,24.14
2018-09-12T19:58:09.587Z,24.06
2018-09-12T20:00:40.485Z,23.97
2018-09-12T20:03:11.535Z,23.80
2018-09-12T20:05:42.537Z,23.68
2018-09-12T20:08:13.478Z,23.43
2018-09-12T20:10:44.498Z,23.48
2018-09-12T20:13:15.498Z,23.36
2018-09-12T20:15:46.545Z,23.42
2018-09-12T20:18:17.579Z,23.14
2018-09-12T20:20:48.662Z,23.05
2018-09-12T20:23:19.690Z,22.88
2018-09-12T20:25:50.577Z,22.77
2018-09-12T20:28:21.551Z,22.70
2018-09-12T20:30:52.494Z,22.60
2018-09-12T20:33:24.001Z,22.36
2018-09-12T20:35:55.426Z,22.27
2018-09-12T20:38:26.509Z,22.24
2018-09-12T20:40:57.538Z,22.22
2018-09-12T20:43:28.531Z,22.07
2018-09-12T20:45:59.484Z,21.94
2018-09-12T20:48:30.522Z,21.87
2018-09-12T20:51:01.476Z,21.87
2018-09-12T20:53:32.492Z,21.90
2018-09-12T20:56:03.510Z,21.73
2018-09-12T20:58:34.499Z,21.62
2018-09-12T21:01:05.518Z,21.53
2018-09-12T21:03:36.490Z,21.53
2018-09-12T21:06:07.490Z,21.42
2018-09-12T21:08:38.552Z,21.40
2018-09-12T21:11:09.543Z,21.22
2018-09-12T21:13:40.497Z,21.13
2018-09-12T21:16:11.618Z,21.04
2018-09-12T21:18:42.572Z,21.01
2018-09-12T21:21:15.277Z,20.97
2018-09-12T21:23:46.371Z,20.90
2018-09-12T21:26:17.477Z,20.88
2018-09-12T21:28:48.515Z,20.77
2018-09-12T21:31:19.549Z,20.69
2018-09-12T21:33:50.501Z,20.73
2018-09-12T21:36:22.027Z,20.59
2018-09-12T21:38:53.592Z,20.56
2018-09-12T21:41:24.508Z,20.43
2018-09-12T21:43:55.502Z,20.37
2018-09-12T21:46:26.505Z,20.28
2018-09-12T21:48:57.488Z,20.32
2018-09-12T21:51:28.465Z,20.16
2018-09-12T21:53:59.509Z,20.15
2018-09-12T21:56:30.481Z,20.02
2018-09-12T21:59:01.521Z,20.00
2018-09-12T22:01:32.525Z,19.88
2018-09-12T22:04:03.489Z,19.91
2018-09-12T22:06:34.841Z,19.83
2018-09-12T22:09:09.464Z,19.78
2018-09-12T22:11:40.509Z,19.76
2018-09-12T22:14:11.481Z,19.60
2018-09-12T22:16:42.499Z,19.59
2018-09-12T22:19:13.476Z,19.47
2018-09-12T22:21:44.500Z,19.50
2018-09-12T22:24:15.489Z,19.40
2018-09-12T22:26:46.541Z,19.37
2018-09-12T22:29:17.480Z,19.28
2018-09-12T22:31:48.499Z,19.31
2018-09-12T22:34:19.489Z,19.35
2018-09-12T22:36:50.484Z,19.19
2018-09-12T22:39:21.530Z,19.30
2018-09-12T22:41:52.503Z,19.18
2018-09-12T22:44:23.481Z,19.20
2018-09-12T22:46:54.484Z,19.05
2018-09-12T22:49:25.500Z,19.03
2018-09-12T22:51:56.525Z,19.13
2018-09-12T22:54:27.533Z,19.05
2018-09-12T22:56:58.517Z,18.89
2018-09-12T22:59:29.502Z,18.98
2018-09-12T23:02:00.538Z,18.91
2018-09-12T23:04:31.495Z,18.89
2018-09-12T23:07:02.534Z,18.85
2018-09-12T23:09:33.501Z,18.78
2018-09-12T23:12:04.543Z,18.70
2018-09-12T23:14:35.526Z,18.74
2018-09-12T23:17:06.727Z,18.82
2018-09-12T23:19:37.574Z,18.76
2018-09-12T23:22:08.550Z,18.66
2018-09-12T23:24:39.523Z,18.75
2018-09-12T23:27:10.529Z,18.72
2018-09-12T23:29:41.527Z,18.62
2018-09-12T23:32:12.516Z,18.61
2018-09-12T23:34:43.529Z,18.73
2018-09-12T23:37:14.554Z,18.68
2018-09-12T23:39:45.516Z,18.56
2018-09-12T23:42:16.517Z,18.55
2018-09-12T23:44:47.662Z,18.63
2018-09-12T23:47:18.590Z,18.48
2018-09-12T23:49:49.553Z,18.43
2018-09-12T23:52:20.522Z,18.39
2018-09-12T23:57:35.511Z,18.38
